RYR6DB EDDC-LHBP
Flight info
| Callsign | RYR6DB |
|---|---|
| Flight time | 0h 59m |
| Altitude | 35000 |
| Route | DEKOV6W DEKOV DCT EVIKU DCT ODNEM DCT NIT M748 ARFOX |
| Aircraft | B738/M-SDE2E3FGHIRWXY/LB1 |
Departure
| Time | 2026-05-04 19:34 |
|---|---|
| Airport | Dresden Airport (EDDC) |
Arrival
| Time | 2026-05-04 20:33 |
|---|---|
| Airport | Budapest Liszt Ferenc International Airport (LHBP) |
| Time | Latitude | Longitude | Altitude | Speed | Heading |
|---|---|---|---|---|---|
| 2026-05-04 19:12 | 51.12628 | 13.76543 | 750 ft | 0 kts | 220° |
| 2026-05-04 19:22 | 51.12633 | 13.76551 | 750 ft | 4 kts | 221° |
| 2026-05-04 19:22 | 51.12653 | 13.76580 | 747 ft | 4 kts | 227° |
| 2026-05-04 19:23 | 51.12670 | 13.76613 | 750 ft | 4 kts | 239° |
| 2026-05-04 19:23 | 51.12679 | 13.76651 | 747 ft | 4 kts | 276° |
| 2026-05-04 19:23 | 51.12675 | 13.76669 | 748 ft | 1 kts | 311° |
| 2026-05-04 19:26 | 51.12677 | 13.76666 | 748 ft | 2 kts | 311° |
| 2026-05-04 19:26 | 51.12696 | 13.76632 | 750 ft | 8 kts | 311° |
| 2026-05-04 19:27 | 51.12711 | 13.76605 | 749 ft | 0 kts | 311° |
| 2026-05-04 19:27 | 51.12721 | 13.76601 | 749 ft | 4 kts | 342° |
| 2026-05-04 19:27 | 51.12753 | 13.76576 | 748 ft | 6 kts | 321° |
| 2026-05-04 19:27 | 51.12758 | 13.76567 | 746 ft | 2 kts | 313° |
| 2026-05-04 19:28 | 51.12809 | 13.76480 | 743 ft | 15 kts | 320° |
| 2026-05-04 19:28 | 51.12905 | 13.76543 | 745 ft | 17 kts | 44° |
| 2026-05-04 19:28 | 51.12990 | 13.76666 | 743 ft | 16 kts | 41° |
| 2026-05-04 19:28 | 51.13077 | 13.76791 | 741 ft | 18 kts | 43° |
| 2026-05-04 19:29 | 51.13170 | 13.76917 | 737 ft | 19 kts | 39° |
| 2026-05-04 19:29 | 51.13280 | 13.77066 | 731 ft | 21 kts | 41° |
| 2026-05-04 19:29 | 51.13393 | 13.77225 | 726 ft | 22 kts | 47° |
| 2026-05-04 19:29 | 51.13511 | 13.77381 | 724 ft | 22 kts | 38° |
| 2026-05-04 19:30 | 51.13624 | 13.77536 | 722 ft | 21 kts | 41° |
| 2026-05-04 19:30 | 51.13741 | 13.77702 | 717 ft | 23 kts | 42° |
| 2026-05-04 19:30 | 51.13864 | 13.77871 | 710 ft | 24 kts | 39° |
| 2026-05-04 19:30 | 51.13988 | 13.78039 | 706 ft | 23 kts | 41° |
| 2026-05-04 19:31 | 51.14106 | 13.78202 | 699 ft | 22 kts | 40° |
| 2026-05-04 19:31 | 51.14219 | 13.78357 | 704 ft | 17 kts | 33° |
| 2026-05-04 19:31 | 51.14269 | 13.78344 | 698 ft | 0 kts | 326° |
| 2026-05-04 19:32 | 51.14270 | 13.78343 | 698 ft | 2 kts | 325° |
| 2026-05-04 19:33 | 51.14319 | 13.78260 | 697 ft | 15 kts | 311° |
| 2026-05-04 19:33 | 51.14370 | 13.78120 | 704 ft | 15 kts | 263° |
| 2026-05-04 19:33 | 51.14238 | 13.77900 | 709 ft | 63 kts | 220° |
| 2026-05-04 19:33 | 51.13694 | 13.77156 | 727 ft | 140 kts | 221° |
| 2026-05-04 19:34 | 51.12806 | 13.75938 | 956 ft | 188 kts | 221° |
| 2026-05-04 19:34 | 51.11754 | 13.74470 | 1568 ft | 204 kts | 222° |
| 2026-05-04 19:34 | 51.10740 | 13.72985 | 2540 ft | 191 kts | 223° |
| 2026-05-04 19:34 | 51.09753 | 13.71546 | 3273 ft | 205 kts | 222° |
| 2026-05-04 19:35 | 51.08630 | 13.69932 | 3518 ft | 230 kts | 222° |
| 2026-05-04 19:35 | 51.07403 | 13.68188 | 3955 ft | 241 kts | 222° |
| 2026-05-04 19:35 | 51.06143 | 13.66407 | 4577 ft | 244 kts | 222° |
| 2026-05-04 19:35 | 51.04873 | 13.64617 | 5263 ft | 243 kts | 221° |
| 2026-05-04 19:36 | 51.03435 | 13.63322 | 5892 ft | 245 kts | 194° |
| 2026-05-04 19:36 | 51.01749 | 13.63358 | 6544 ft | 247 kts | 166° |
| 2026-05-04 19:36 | 51.00252 | 13.64734 | 7081 ft | 255 kts | 139° |
| 2026-05-04 19:36 | 50.99364 | 13.67190 | 7584 ft | 269 kts | 105° |
| 2026-05-04 19:37 | 50.99132 | 13.70248 | 7901 ft | 287 kts | 99° |
| 2026-05-04 19:37 | 50.98814 | 13.73309 | 8530 ft | 294 kts | 104° |
| 2026-05-04 19:37 | 50.98343 | 13.76477 | 9404 ft | 296 kts | 107° |
| 2026-05-04 19:37 | 50.97793 | 13.79653 | 10148 ft | 302 kts | 109° |
| 2026-05-04 19:38 | 50.97190 | 13.82891 | 10484 ft | 323 kts | 109° |
| 2026-05-04 19:38 | 50.96513 | 13.86430 | 10670 ft | 347 kts | 109° |
| 2026-05-04 19:38 | 50.95795 | 13.90160 | 11156 ft | 358 kts | 109° |
| 2026-05-04 19:38 | 50.95061 | 13.93968 | 11831 ft | 364 kts | 109° |
| 2026-05-04 19:39 | 50.94320 | 13.97812 | 12599 ft | 366 kts | 109° |
| 2026-05-04 19:39 | 50.93570 | 14.01693 | 13356 ft | 370 kts | 110° |
| 2026-05-04 19:39 | 50.92810 | 14.05620 | 14043 ft | 375 kts | 110° |
| 2026-05-04 19:39 | 50.92043 | 14.09580 | 14720 ft | 377 kts | 110° |
| 2026-05-04 19:40 | 50.91265 | 14.13575 | 15404 ft | 380 kts | 110° |
| 2026-05-04 19:40 | 50.90458 | 14.17572 | 16043 ft | 383 kts | 114° |
| 2026-05-04 19:40 | 50.89067 | 14.21125 | 16654 ft | 380 kts | 135° |
| 2026-05-04 19:40 | 50.87027 | 14.23732 | 17304 ft | 377 kts | 154° |
| 2026-05-04 19:41 | 50.84682 | 14.25592 | 17963 ft | 378 kts | 157° |
| 2026-05-04 19:41 | 50.82315 | 14.27328 | 18517 ft | 383 kts | 158° |
| 2026-05-04 19:41 | 50.79881 | 14.29083 | 19024 ft | 387 kts | 158° |
| 2026-05-04 19:41 | 50.77430 | 14.30861 | 19567 ft | 390 kts | 158° |
| 2026-05-04 19:42 | 50.75189 | 14.32504 | 20059 ft | 393 kts | 158° |
| 2026-05-04 19:42 | 50.72703 | 14.34342 | 20573 ft | 396 kts | 157° |
| 2026-05-04 19:42 | 50.70196 | 14.36205 | 21085 ft | 400 kts | 157° |
| 2026-05-04 19:42 | 50.67675 | 14.38084 | 21590 ft | 403 kts | 157° |
| 2026-05-04 19:43 | 50.65123 | 14.39985 | 22075 ft | 407 kts | 157° |
| 2026-05-04 19:43 | 50.62557 | 14.41897 | 22564 ft | 410 kts | 157° |
| 2026-05-04 19:43 | 50.59968 | 14.43823 | 23054 ft | 413 kts | 157° |
| 2026-05-04 19:43 | 50.57364 | 14.45758 | 23526 ft | 416 kts | 157° |
| 2026-05-04 19:44 | 50.54769 | 14.47684 | 23917 ft | 419 kts | 157° |
| 2026-05-04 19:44 | 50.52213 | 14.49578 | 24304 ft | 421 kts | 157° |
| 2026-05-04 19:44 | 50.49557 | 14.51543 | 24716 ft | 423 kts | 157° |
| 2026-05-04 19:44 | 50.46956 | 14.53746 | 25102 ft | 428 kts | 149° |
| 2026-05-04 19:45 | 50.44572 | 14.56600 | 25488 ft | 434 kts | 140° |
| 2026-05-04 19:45 | 50.42461 | 14.60017 | 25873 ft | 438 kts | 135° |
| 2026-05-04 19:45 | 50.40413 | 14.63556 | 26230 ft | 441 kts | 134° |
| 2026-05-04 19:45 | 50.38359 | 14.67154 | 26573 ft | 443 kts | 134° |
| 2026-05-04 19:46 | 50.36296 | 14.70763 | 26917 ft | 446 kts | 134° |
| 2026-05-04 19:46 | 50.34217 | 14.74377 | 27266 ft | 448 kts | 135° |
| 2026-05-04 19:46 | 50.32114 | 14.78003 | 27607 ft | 451 kts | 135° |
| 2026-05-04 19:46 | 50.29998 | 14.81629 | 27939 ft | 453 kts | 135° |
| 2026-05-04 19:47 | 50.27893 | 14.85217 | 28260 ft | 455 kts | 135° |
| 2026-05-04 19:47 | 50.25747 | 14.88864 | 28584 ft | 457 kts | 135° |
| 2026-05-04 19:47 | 50.23587 | 14.92528 | 28889 ft | 459 kts | 135° |
| 2026-05-04 19:47 | 50.21419 | 14.96198 | 29196 ft | 461 kts | 135° |
| 2026-05-04 19:48 | 50.19245 | 14.99873 | 29502 ft | 463 kts | 135° |
| 2026-05-04 19:48 | 50.17109 | 15.03480 | 29783 ft | 465 kts | 135° |
| 2026-05-04 19:48 | 50.14908 | 15.07191 | 30043 ft | 467 kts | 135° |
| 2026-05-04 19:48 | 50.12692 | 15.10922 | 30262 ft | 470 kts | 135° |
| 2026-05-04 19:49 | 50.10469 | 15.14661 | 30511 ft | 471 kts | 135° |
| 2026-05-04 19:49 | 50.08240 | 15.18405 | 30808 ft | 471 kts | 135° |
| 2026-05-04 19:49 | 50.06015 | 15.22139 | 31176 ft | 469 kts | 135° |
| 2026-05-04 19:49 | 50.03800 | 15.25849 | 31551 ft | 468 kts | 135° |
| 2026-05-04 19:50 | 50.01613 | 15.29506 | 31884 ft | 467 kts | 135° |
| 2026-05-04 19:50 | 49.99407 | 15.33190 | 32189 ft | 467 kts | 135° |
| 2026-05-04 19:50 | 49.97195 | 15.36877 | 32511 ft | 466 kts | 135° |
| 2026-05-04 19:50 | 49.94985 | 15.40556 | 32852 ft | 465 kts | 135° |
| 2026-05-04 19:51 | 49.92779 | 15.44223 | 33169 ft | 465 kts | 135° |
| 2026-05-04 19:51 | 49.90570 | 15.47890 | 33462 ft | 465 kts | 135° |
| 2026-05-04 19:51 | 49.88364 | 15.51545 | 33769 ft | 464 kts | 135° |
| 2026-05-04 19:51 | 49.86161 | 15.55191 | 34045 ft | 463 kts | 135° |
| 2026-05-04 19:52 | 49.83957 | 15.58835 | 34305 ft | 463 kts | 135° |
| 2026-05-04 19:52 | 49.81754 | 15.62470 | 34541 ft | 464 kts | 135° |
| 2026-05-04 19:52 | 49.79545 | 15.66111 | 34783 ft | 463 kts | 135° |
| 2026-05-04 19:52 | 49.77336 | 15.69746 | 34947 ft | 465 kts | 135° |
| 2026-05-04 19:53 | 49.75138 | 15.73357 | 34929 ft | 468 kts | 135° |
| 2026-05-04 19:53 | 49.70680 | 15.80668 | 34935 ft | 465 kts | 135° |
| 2026-05-04 19:54 | 49.66266 | 15.87888 | 34947 ft | 461 kts | 135° |
| 2026-05-04 19:54 | 49.61862 | 15.95070 | 34953 ft | 460 kts | 135° |
| 2026-05-04 19:55 | 49.57541 | 16.02095 | 34954 ft | 460 kts | 135° |
| 2026-05-04 19:55 | 49.53158 | 16.09202 | 34953 ft | 461 kts | 135° |
| 2026-05-04 19:56 | 49.48735 | 16.16353 | 34962 ft | 462 kts | 135° |
| 2026-05-04 19:56 | 49.44397 | 16.23349 | 34958 ft | 463 kts | 135° |
| 2026-05-04 19:57 | 49.39947 | 16.30503 | 34961 ft | 464 kts | 135° |
| 2026-05-04 19:57 | 49.35479 | 16.37669 | 34960 ft | 465 kts | 135° |
| 2026-05-04 19:58 | 49.31001 | 16.44830 | 34964 ft | 466 kts | 135° |
| 2026-05-04 19:58 | 49.26511 | 16.51990 | 34965 ft | 466 kts | 135° |
| 2026-05-04 19:59 | 49.22041 | 16.59098 | 34967 ft | 467 kts | 135° |
| 2026-05-04 19:59 | 49.17535 | 16.66244 | 34967 ft | 467 kts | 135° |
| 2026-05-04 20:00 | 49.13023 | 16.73379 | 34964 ft | 467 kts | 135° |
| 2026-05-04 20:00 | 49.08514 | 16.80490 | 34962 ft | 467 kts | 135° |
| 2026-05-04 20:01 | 49.04022 | 16.87554 | 34960 ft | 466 kts | 135° |
| 2026-05-04 20:01 | 48.99515 | 16.94624 | 34953 ft | 461 kts | 135° |
| 2026-05-04 20:01 | 48.97319 | 16.98064 | 34943 ft | 446 kts | 135° |
| 2026-05-04 20:02 | 48.95198 | 17.01381 | 34936 ft | 432 kts | 136° |
| 2026-05-04 20:02 | 48.93131 | 17.04610 | 34942 ft | 418 kts | 136° |
| 2026-05-04 20:02 | 48.91137 | 17.07720 | 34936 ft | 405 kts | 136° |
| 2026-05-04 20:02 | 48.89199 | 17.10739 | 34942 ft | 392 kts | 136° |
| 2026-05-04 20:03 | 48.87353 | 17.13611 | 34942 ft | 381 kts | 136° |
| 2026-05-04 20:03 | 48.83623 | 17.19430 | 34985 ft | 391 kts | 135° |
| 2026-05-04 20:04 | 48.79799 | 17.25524 | 34978 ft | 405 kts | 135° |
| 2026-05-04 20:04 | 48.75902 | 17.31746 | 34967 ft | 407 kts | 135° |
| 2026-05-04 20:05 | 48.72052 | 17.37869 | 34964 ft | 396 kts | 135° |
| 2026-05-04 20:05 | 48.68268 | 17.43865 | 34986 ft | 397 kts | 135° |
| 2026-05-04 20:06 | 48.64436 | 17.49918 | 34994 ft | 399 kts | 135° |
| 2026-05-04 20:06 | 48.60581 | 17.55993 | 34993 ft | 401 kts | 135° |
| 2026-05-04 20:07 | 48.56753 | 17.62013 | 34990 ft | 403 kts | 134° |
| 2026-05-04 20:07 | 48.52866 | 17.68112 | 34993 ft | 403 kts | 134° |
| 2026-05-04 20:08 | 48.49004 | 17.74157 | 34994 ft | 403 kts | 134° |
| 2026-05-04 20:08 | 48.45123 | 17.80218 | 34994 ft | 401 kts | 134° |
| 2026-05-04 20:09 | 48.41320 | 17.86144 | 34966 ft | 401 kts | 134° |
| 2026-05-04 20:09 | 48.39387 | 17.89150 | 34485 ft | 406 kts | 134° |
| 2026-05-04 20:09 | 48.37395 | 17.92244 | 33434 ft | 420 kts | 134° |
| 2026-05-04 20:09 | 48.35311 | 17.95479 | 32062 ft | 441 kts | 134° |
| 2026-05-04 20:10 | 48.33153 | 17.98825 | 31308 ft | 446 kts | 134° |
| 2026-05-04 20:10 | 48.31005 | 18.02151 | 30948 ft | 441 kts | 134° |
| 2026-05-04 20:10 | 48.28912 | 18.05389 | 30642 ft | 434 kts | 134° |
| 2026-05-04 20:10 | 48.26864 | 18.08678 | 30247 ft | 430 kts | 133° |
| 2026-05-04 20:11 | 48.24864 | 18.12003 | 29766 ft | 428 kts | 132° |
| 2026-05-04 20:11 | 48.22890 | 18.15320 | 29256 ft | 424 kts | 132° |
| 2026-05-04 20:11 | 48.21039 | 18.18429 | 28795 ft | 421 kts | 132° |
| 2026-05-04 20:11 | 48.19116 | 18.21645 | 28328 ft | 418 kts | 132° |
| 2026-05-04 20:12 | 48.17177 | 18.24870 | 27873 ft | 415 kts | 132° |
| 2026-05-04 20:12 | 48.15248 | 18.28067 | 27410 ft | 412 kts | 132° |
| 2026-05-04 20:12 | 48.13331 | 18.31234 | 26967 ft | 409 kts | 132° |
| 2026-05-04 20:12 | 48.11517 | 18.34225 | 26548 ft | 406 kts | 132° |
| 2026-05-04 20:13 | 48.09645 | 18.37308 | 26119 ft | 404 kts | 132° |
| 2026-05-04 20:13 | 48.07767 | 18.40398 | 25693 ft | 401 kts | 132° |
| 2026-05-04 20:13 | 48.05899 | 18.43469 | 25280 ft | 398 kts | 132° |
| 2026-05-04 20:13 | 48.04038 | 18.46525 | 24873 ft | 395 kts | 133° |
| 2026-05-04 20:14 | 48.02194 | 18.49551 | 24474 ft | 393 kts | 133° |
| 2026-05-04 20:14 | 48.00357 | 18.52560 | 24086 ft | 390 kts | 133° |
| 2026-05-04 20:14 | 47.98536 | 18.55542 | 23703 ft | 388 kts | 131° |
| 2026-05-04 20:14 | 47.97023 | 18.58844 | 23211 ft | 387 kts | 114° |
| 2026-05-04 20:15 | 47.96132 | 18.62551 | 22816 ft | 382 kts | 108° |
| 2026-05-04 20:15 | 47.95328 | 18.66309 | 22406 ft | 379 kts | 108° |
| 2026-05-04 20:15 | 47.94535 | 18.70057 | 21958 ft | 377 kts | 108° |
| 2026-05-04 20:15 | 47.93737 | 18.73774 | 21547 ft | 375 kts | 108° |
| 2026-05-04 20:16 | 47.92946 | 18.77392 | 21160 ft | 372 kts | 109° |
| 2026-05-04 20:16 | 47.92159 | 18.80944 | 20788 ft | 369 kts | 109° |
| 2026-05-04 20:16 | 47.91350 | 18.84569 | 20400 ft | 366 kts | 109° |
| 2026-05-04 20:16 | 47.90546 | 18.88158 | 20015 ft | 364 kts | 109° |
| 2026-05-04 20:17 | 47.89745 | 18.91724 | 19646 ft | 362 kts | 109° |
| 2026-05-04 20:17 | 47.88946 | 18.95267 | 19265 ft | 359 kts | 110° |
| 2026-05-04 20:17 | 47.87925 | 18.98584 | 18903 ft | 356 kts | 122° |
| 2026-05-04 20:17 | 47.86490 | 19.01561 | 18545 ft | 352 kts | 133° |
| 2026-05-04 20:18 | 47.84830 | 19.04223 | 18172 ft | 350 kts | 134° |
| 2026-05-04 20:18 | 47.83159 | 19.06832 | 17758 ft | 348 kts | 135° |
| 2026-05-04 20:18 | 47.81498 | 19.09436 | 17369 ft | 345 kts | 134° |
| 2026-05-04 20:18 | 47.79859 | 19.12035 | 16967 ft | 344 kts | 134° |
| 2026-05-04 20:19 | 47.78235 | 19.14626 | 16590 ft | 341 kts | 134° |
| 2026-05-04 20:19 | 47.76624 | 19.17201 | 16209 ft | 339 kts | 134° |
| 2026-05-04 20:19 | 47.75054 | 19.19749 | 15811 ft | 338 kts | 133° |
| 2026-05-04 20:19 | 47.73500 | 19.22349 | 15454 ft | 336 kts | 133° |
| 2026-05-04 20:20 | 47.71959 | 19.24943 | 15101 ft | 334 kts | 133° |
| 2026-05-04 20:20 | 47.70423 | 19.27516 | 14745 ft | 332 kts | 133° |
| 2026-05-04 20:20 | 47.68894 | 19.30066 | 14396 ft | 330 kts | 133° |
| 2026-05-04 20:20 | 47.67368 | 19.32599 | 14042 ft | 328 kts | 133° |
| 2026-05-04 20:21 | 47.65833 | 19.35092 | 13692 ft | 326 kts | 134° |
| 2026-05-04 20:21 | 47.64245 | 19.37464 | 13395 ft | 320 kts | 145° |
| 2026-05-04 20:21 | 47.60263 | 19.39057 | 13248 ft | 294 kts | 188° |
| 2026-05-04 20:22 | 47.58313 | 19.38280 | 12890 ft | 293 kts | 204° |
| 2026-05-04 20:22 | 47.56586 | 19.36596 | 12261 ft | 303 kts | 219° |
| 2026-05-04 20:22 | 47.55206 | 19.34205 | 11609 ft | 313 kts | 243° |
| 2026-05-04 20:22 | 47.54640 | 19.31080 | 11028 ft | 322 kts | 266° |
| 2026-05-04 20:23 | 47.54988 | 19.27787 | 10433 ft | 331 kts | 290° |
| 2026-05-04 20:23 | 47.56197 | 19.24876 | 9842 ft | 339 kts | 309° |
| 2026-05-04 20:23 | 47.57815 | 19.22289 | 9214 ft | 343 kts | 312° |
| 2026-05-04 20:23 | 47.59466 | 19.19724 | 8581 ft | 346 kts | 312° |
| 2026-05-04 20:24 | 47.61099 | 19.17151 | 7964 ft | 348 kts | 311° |
| 2026-05-04 20:24 | 47.62746 | 19.14503 | 7350 ft | 350 kts | 311° |
| 2026-05-04 20:24 | 47.64390 | 19.11832 | 6744 ft | 351 kts | 311° |
| 2026-05-04 20:24 | 47.66029 | 19.09160 | 6128 ft | 347 kts | 311° |
| 2026-05-04 20:25 | 47.67625 | 19.06556 | 5530 ft | 332 kts | 309° |
| 2026-05-04 20:25 | 47.68793 | 19.03768 | 4904 ft | 308 kts | 286° |
| 2026-05-04 20:25 | 47.69069 | 19.00757 | 4325 ft | 283 kts | 263° |
| 2026-05-04 20:25 | 47.68791 | 18.98645 | 4141 ft | 256 kts | 249° |
| 2026-05-04 20:26 | 47.68072 | 18.96440 | 4029 ft | 223 kts | 234° |
| 2026-05-04 20:26 | 47.67118 | 18.94813 | 3976 ft | 196 kts | 220° |
| 2026-05-04 20:26 | 47.66072 | 18.93715 | 3958 ft | 175 kts | 207° |
| 2026-05-04 20:26 | 47.64947 | 18.92969 | 3976 ft | 179 kts | 200° |
| 2026-05-04 20:27 | 47.63732 | 18.92962 | 3976 ft | 182 kts | 157° |
| 2026-05-04 20:27 | 47.62722 | 18.94118 | 3996 ft | 186 kts | 143° |
| 2026-05-04 20:27 | 47.61724 | 18.95332 | 3996 ft | 186 kts | 144° |
| 2026-05-04 20:27 | 47.60752 | 18.96612 | 3989 ft | 188 kts | 140° |
| 2026-05-04 20:28 | 47.59819 | 18.97991 | 3983 ft | 190 kts | 138° |
| 2026-05-04 20:28 | 47.58913 | 18.99411 | 3994 ft | 190 kts | 137° |
| 2026-05-04 20:28 | 47.58033 | 19.00819 | 3982 ft | 185 kts | 137° |
| 2026-05-04 20:28 | 47.57181 | 19.02193 | 3925 ft | 179 kts | 137° |
| 2026-05-04 20:29 | 47.56344 | 19.03542 | 3724 ft | 176 kts | 137° |
| 2026-05-04 20:29 | 47.55529 | 19.04856 | 3511 ft | 174 kts | 137° |
| 2026-05-04 20:29 | 47.54704 | 19.06186 | 3288 ft | 173 kts | 137° |
| 2026-05-04 20:29 | 47.53900 | 19.07485 | 3052 ft | 168 kts | 137° |
| 2026-05-04 20:30 | 47.53126 | 19.08736 | 2835 ft | 162 kts | 138° |
| 2026-05-04 20:30 | 47.52383 | 19.09935 | 2619 ft | 154 kts | 138° |
| 2026-05-04 20:30 | 47.51676 | 19.11077 | 2471 ft | 146 kts | 139° |
| 2026-05-04 20:30 | 47.51021 | 19.12137 | 2251 ft | 136 kts | 139° |
| 2026-05-04 20:31 | 47.50382 | 19.13164 | 2072 ft | 136 kts | 139° |
| 2026-05-04 20:31 | 47.49755 | 19.14177 | 1900 ft | 135 kts | 138° |
| 2026-05-04 20:31 | 47.49119 | 19.15205 | 1729 ft | 135 kts | 138° |
| 2026-05-04 20:31 | 47.48484 | 19.16229 | 1538 ft | 136 kts | 137° |
| 2026-05-04 20:32 | 47.47843 | 19.17265 | 1356 ft | 137 kts | 135° |
| 2026-05-04 20:32 | 47.47201 | 19.18305 | 1162 ft | 137 kts | 133° |
| 2026-05-04 20:32 | 47.46565 | 19.19333 | 939 ft | 133 kts | 132° |
| 2026-05-04 20:32 | 47.45943 | 19.20333 | 815 ft | 134 kts | 131° |
| 2026-05-04 20:33 | 47.45315 | 19.21362 | 645 ft | 133 kts | 131° |
| 2026-05-04 20:33 | 47.44907 | 19.22019 | 523 ft | 131 kts | 131° |
| 2026-05-04 20:33 | 47.44207 | 19.23150 | 457 ft | 87 kts | 132° |
| 2026-05-04 20:33 | 47.43919 | 19.23614 | 456 ft | 48 kts | 132° |
| 2026-05-04 20:34 | 47.43745 | 19.23935 | 458 ft | 35 kts | 118° |
| 2026-05-04 20:34 | 47.43674 | 19.24244 | 456 ft | 30 kts | 105° |
| 2026-05-04 20:34 | 47.43598 | 19.24517 | 459 ft | 28 kts | 122° |
| 2026-05-04 20:34 | 47.43478 | 19.24730 | 459 ft | 26 kts | 133° |
| 2026-05-04 20:35 | 47.43398 | 19.24859 | 459 ft | 25 kts | 132° |
| 2026-05-04 20:35 | 47.43285 | 19.25041 | 459 ft | 23 kts | 133° |
| 2026-05-04 20:35 | 47.43253 | 19.25252 | 460 ft | 22 kts | 62° |
| 2026-05-04 20:35 | 47.43398 | 19.25461 | 465 ft | 22 kts | 40° |
| 2026-05-04 20:36 | 47.43508 | 19.25608 | 470 ft | 21 kts | 42° |
| 2026-05-04 20:36 | 47.43581 | 19.25702 | 471 ft | 21 kts | 41° |
| 2026-05-04 20:36 | 47.43719 | 19.25886 | 477 ft | 18 kts | 44° |
| 2026-05-04 20:36 | 47.43756 | 19.25941 | 479 ft | 10 kts | 44° |
| 2026-05-04 20:37 | 47.43810 | 19.26013 | 485 ft | 10 kts | 42° |
| 2026-05-04 20:37 | 47.43861 | 19.26083 | 486 ft | 10 kts | 43° |
| 2026-05-04 20:37 | 47.43911 | 19.26150 | 484 ft | 10 kts | 42° |
| 2026-05-04 20:37 | 47.43923 | 19.26219 | 480 ft | 6 kts | 117° |
| 2026-05-04 20:38 | 47.43886 | 19.26258 | 486 ft | 5 kts | 139° |
| 2026-05-04 20:38 | 47.43863 | 19.26292 | 482 ft | 11 kts | 133° |
| 2026-05-04 20:38 | 47.43787 | 19.26406 | 479 ft | 16 kts | 153° |
| 2026-05-04 20:38 | 47.43692 | 19.26338 | 481 ft | 16 kts | 222° |
| 2026-05-04 20:39 | 47.43611 | 19.26235 | 477 ft | 15 kts | 205° |
| 2026-05-04 20:39 | 47.43535 | 19.26303 | 477 ft | 2 kts | 90° |